createdAt,value
2019-04-14T00:16:11.831Z,12.33
2019-04-14T00:18:40.693Z,11.40
2019-04-14T00:21:10.785Z,13.53
2019-04-14T00:23:41.173Z,14.03
2019-04-14T00:26:31.548Z,11.77
2019-04-14T00:29:00.884Z,11.00
2019-04-14T00:31:30.740Z,12.23
2019-04-14T00:34:02.898Z,11.87
2019-04-14T00:36:52.310Z,12.57
2019-04-14T00:39:27.661Z,11.13
2019-04-14T00:42:16.884Z,12.13
2019-04-14T00:44:49.574Z,10.93
2019-04-14T00:47:24.718Z,10.30
2019-04-14T00:49:53.673Z,12.07
2019-04-14T00:52:23.411Z,13.50
2019-04-14T00:54:52.418Z,11.73
2019-04-14T00:57:22.393Z,10.87
2019-04-14T00:59:52.997Z,11.30
2019-04-14T01:02:23.219Z,11.60
2019-04-14T01:04:53.439Z,11.13
2019-04-14T01:07:24.028Z,11.03
2019-04-14T01:09:53.212Z,11.17
2019-04-14T01:12:23.426Z,11.70
2019-04-14T01:14:53.767Z,11.07
2019-04-14T01:17:24.373Z,12.40
2019-04-14T01:19:53.330Z,11.37
2019-04-14T01:22:22.788Z,11.73
2019-04-14T01:24:53.179Z,11.33
2019-04-14T01:27:23.563Z,11.03
2019-04-14T01:29:54.502Z,11.07
2019-04-14T01:32:24.064Z,10.80
2019-04-14T01:34:55.235Z,12.43
2019-04-14T01:37:24.769Z,11.23
2019-04-14T01:39:54.600Z,12.47
2019-04-14T01:42:24.567Z,9.17
2019-04-14T01:44:54.538Z,10.30
2019-04-14T01:47:24.670Z,14.03
2019-04-14T01:49:53.796Z,10.37
2019-04-14T01:52:54.417Z,9.97
2019-04-14T01:55:46.251Z,10.50
2019-04-14T01:58:25.150Z,11.50
2019-04-14T02:01:10.543Z,12.03
2019-04-14T02:03:40.887Z,11.73
2019-04-14T02:06:13.656Z,10.07
2019-04-14T02:08:43.677Z,11.43
2019-04-14T02:11:13.696Z,13.23
2019-04-14T02:13:42.750Z,14.33
2019-04-14T02:16:22.973Z,13.50
2019-04-14T02:18:42.740Z,12.93
2019-04-14T02:21:12.819Z,12.37
2019-04-14T02:23:43.222Z,11.80
2019-04-14T02:26:13.232Z,11.10
2019-04-14T02:28:42.212Z,10.70
2019-04-14T02:31:24.793Z,12.00
2019-04-14T02:34:08.194Z,12.60
2019-04-14T02:36:42.910Z,11.80
2019-04-14T02:39:16.989Z,14.03
2019-04-14T02:41:47.309Z,11.93
2019-04-14T02:46:47.893Z,12.10
2019-04-14T02:49:12.421Z,11.47
2019-04-14T02:51:40.111Z,16.20
2019-04-14T02:54:14.272Z,13.23
2019-04-14T02:56:43.372Z,14.20
2019-04-14T02:59:11.285Z,11.27
2019-04-14T03:01:59.520Z,11.97
2019-04-14T03:06:50.419Z,11.93
2019-04-14T03:11:48.885Z,11.67
2019-04-14T03:14:27.746Z,14.33
2019-04-14T03:17:25.368Z,11.50
2019-04-14T03:20:11.268Z,14.40
2019-04-14T03:22:40.573Z,11.27
2019-04-14T03:25:17.100Z,10.50
2019-04-14T03:28:06.851Z,12.33
2019-04-14T03:36:06.411Z,12.80
2019-04-14T03:43:13.668Z,12.43
2019-04-14T03:45:43.252Z,9.80
2019-04-14T03:48:42.828Z,11.93
2019-04-14T03:50:36.901Z,11.67
2019-04-14T03:55:58.821Z,11.33
2019-04-14T03:58:22.621Z,14.13
2019-04-14T04:00:51.644Z,13.03
2019-04-14T04:03:21.803Z,14.03
2019-04-14T04:05:52.071Z,12.53
2019-04-14T04:08:22.255Z,13.03
2019-04-14T04:10:53.162Z,12.07
2019-04-14T04:13:22.197Z,13.43
2019-04-14T04:15:51.976Z,12.90
2019-04-14T04:18:24.145Z,12.13
2019-04-14T04:21:00.924Z,12.33
2019-04-14T04:23:53.284Z,11.50
2019-04-14T04:26:36.493Z,11.67
2019-04-14T04:29:09.689Z,13.77
2019-04-14T04:32:01.394Z,12.77
2019-04-14T04:34:40.171Z,12.77
2019-04-14T04:37:17.226Z,12.17
2019-04-14T04:39:47.573Z,12.97
2019-04-14T04:42:17.682Z,13.03
2019-04-14T04:44:46.670Z,12.00
2019-04-14T04:47:16.584Z,13.73
2019-04-14T04:49:46.891Z,12.37
2019-04-14T04:52:17.199Z,17.13
2019-04-14T04:54:47.429Z,14.10
2019-04-14T04:57:17.821Z,13.17
2019-04-14T04:59:47.430Z,13.57
2019-04-14T05:02:17.617Z,13.43
2019-04-14T05:04:46.578Z,13.33
2019-04-14T05:07:16.692Z,14.93
2019-04-14T05:10:08.854Z,13.33
2019-04-14T05:12:54.447Z,12.97
2019-04-14T05:15:45.049Z,12.17
2019-04-14T05:18:24.691Z,14.57
2019-04-14T05:20:55.240Z,12.80
2019-04-14T05:23:25.628Z,14.20
2019-04-14T05:25:55.960Z,13.73
2019-04-14T05:28:26.579Z,11.13
2019-04-14T05:30:56.759Z,12.67
2019-04-14T05:33:27.068Z,10.07
2019-04-14T05:35:57.331Z,11.17
2019-04-14T05:38:30.273Z,12.83
2019-04-14T05:40:58.250Z,12.17
2019-04-14T05:43:36.751Z,12.50
2019-04-14T05:45:59.136Z,12.33
2019-04-14T05:48:29.274Z,10.80
2019-04-14T05:50:58.399Z,11.03
2019-04-14T05:53:28.331Z,12.03
2019-04-14T05:55:57.185Z,10.33
2019-04-14T05:58:27.233Z,10.73
2019-04-14T06:00:56.451Z,16.23
2019-04-14T06:03:25.656Z,9.17
2019-04-14T06:05:54.811Z,9.63
2019-04-14T06:08:23.762Z,13.00
2019-04-14T06:10:52.755Z,9.43
2019-04-14T06:13:21.710Z,8.90
2019-04-14T06:15:50.810Z,9.63
2019-04-14T06:18:19.772Z,9.33
2019-04-14T06:20:48.762Z,13.10
2019-04-14T06:23:17.784Z,8.80
2019-04-14T06:25:46.744Z,10.70
2019-04-14T06:28:16.755Z,10.63
2019-04-14T06:30:58.673Z,11.57
2019-04-14T06:33:37.639Z,9.33
2019-04-14T06:36:16.998Z,9.63
2019-04-14T06:38:47.927Z,7.80
2019-04-14T06:41:18.819Z,8.33
2019-04-14T06:43:48.936Z,13.30
2019-04-14T06:46:22.960Z,5.97
2019-04-14T06:48:51.976Z,10.50
2019-04-14T06:51:21.163Z,10.77
2019-04-14T06:53:50.123Z,7.77
2019-04-14T06:56:18.998Z,8.77
2019-04-14T06:58:47.989Z,9.00
2019-04-14T07:01:16.951Z,9.07
2019-04-14T07:03:45.934Z,7.90
2019-04-14T07:06:22.412Z,8.43
2019-04-14T07:08:54.003Z,9.10
2019-04-14T07:15:29.215Z,7.17
2019-04-14T07:17:58.628Z,7.47
2019-04-14T07:20:28.121Z,8.43
2019-04-14T07:23:00.264Z,9.87
2019-04-14T07:25:29.522Z,14.20
2019-04-14T07:27:58.453Z,9.10
2019-04-14T07:30:59.672Z,12.97
2019-04-14T07:33:41.115Z,12.60
2019-04-14T07:36:32.175Z,8.70
2019-04-14T07:39:19.497Z,6.00
2019-04-14T07:42:05.009Z,9.20
2019-04-14T07:44:48.000Z,8.10
2019-04-14T07:47:22.441Z,8.03
2019-04-14T07:50:14.749Z,9.00
2019-04-14T07:52:53.486Z,6.27
2019-04-14T07:55:38.523Z,11.87
2019-04-14T07:58:35.927Z,7.50
2019-04-14T08:01:15.212Z,8.53
2019-04-14T08:04:01.770Z,9.93
2019-04-14T08:06:32.307Z,6.70
2019-04-14T08:09:01.659Z,9.03
2019-04-14T08:11:41.555Z,8.23
2019-04-14T08:14:13.923Z,7.47
2019-04-14T08:16:46.032Z,9.67
2019-04-14T08:19:16.788Z,8.00
2019-04-14T08:25:27.500Z,7.33
2019-04-14T08:27:57.526Z,8.73
2019-04-14T08:30:26.661Z,6.73
2019-04-14T08:32:55.675Z,7.87
2019-04-14T08:35:24.802Z,11.00
2019-04-14T08:37:53.888Z,8.90
2019-04-14T08:40:22.922Z,7.63
2019-04-14T08:43:18.393Z,7.43
2019-04-14T08:46:01.426Z,6.80
2019-04-14T08:56:02.491Z,9.40
2019-04-14T08:58:57.168Z,11.20
2019-04-14T09:01:33.758Z,6.80
2019-04-14T09:04:17.168Z,8.07
2019-04-14T09:07:06.998Z,9.73
2019-04-14T09:09:41.973Z,10.60
2019-04-14T09:12:16.062Z,10.50
2019-04-14T09:14:56.409Z,10.30
2019-04-14T09:17:17.543Z,10.13
2019-04-14T09:19:47.065Z,8.60
2019-04-14T09:22:16.331Z,9.30
2019-04-14T09:24:45.470Z,11.97
2019-04-14T09:27:15.229Z,11.47
2019-04-14T09:29:44.424Z,9.70
2019-04-14T09:32:14.041Z,10.80
2019-04-14T09:34:43.045Z,9.33
2019-04-14T09:37:12.280Z,9.23
2019-04-14T09:39:43.926Z,11.20
2019-04-14T09:42:12.746Z,10.43
2019-04-14T09:44:41.543Z,8.33
2019-04-14T09:47:10.338Z,7.60
2019-04-14T09:49:39.337Z,11.47
2019-04-14T09:52:08.408Z,8.03
2019-04-14T09:54:37.274Z,11.53
2019-04-14T09:57:06.346Z,8.83
2019-04-14T09:59:35.394Z,10.73
2019-04-14T10:02:04.782Z,11.50
2019-04-14T10:04:33.697Z,10.00
2019-04-14T10:07:02.888Z,9.43
2019-04-14T10:09:31.941Z,9.30
2019-04-14T10:12:02.067Z,9.77
2019-04-14T10:14:31.028Z,10.47
2019-04-14T10:17:01.432Z,12.03
2019-04-14T10:19:30.851Z,12.07
2019-04-14T10:21:59.767Z,11.30
2019-04-14T10:24:28.800Z,9.90
2019-04-14T10:26:57.797Z,11.33
2019-04-14T10:29:27.489Z,13.13
2019-04-14T10:31:56.507Z,15.57
2019-04-14T10:37:20.306Z,12.83
2019-04-14T10:39:50.416Z,13.10
2019-04-14T10:42:37.029Z,13.03
2019-04-14T10:45:06.446Z,11.07
2019-04-14T10:47:59.300Z,12.50
2019-04-14T10:51:08.470Z,13.43
2019-04-14T10:53:35.784Z,10.77
2019-04-14T10:58:41.278Z,11.70
2019-04-14T11:02:51.495Z,12.83
2019-04-14T11:06:25.616Z,12.80
2019-04-14T11:09:46.720Z,9.80
2019-04-14T11:13:07.486Z,10.73
2019-04-14T11:15:53.022Z,10.47
2019-04-14T11:18:47.403Z,10.60
2019-04-14T11:25:39.956Z,14.23
2019-04-14T11:28:14.007Z,13.07
2019-04-14T11:30:44.167Z,12.47
2019-04-14T11:33:19.081Z,14.10
2019-04-14T11:42:52.206Z,10.47
2019-04-14T11:45:14.959Z,10.60
2019-04-14T11:47:45.476Z,10.97
2019-04-14T11:50:15.961Z,11.87
2019-04-14T11:52:45.495Z,9.50
2019-04-14T11:55:17.103Z,11.83
2019-04-14T11:57:47.902Z,10.53
2019-04-14T12:00:35.210Z,10.87
2019-04-14T12:03:24.897Z,10.47
2019-04-14T12:06:06.625Z,10.80
2019-04-14T12:08:45.571Z,10.37
2019-04-14T12:15:38.943Z,9.07
2019-04-14T12:18:08.447Z,10.83
2019-04-14T12:20:37.979Z,12.43
2019-04-14T12:23:08.066Z,10.90
2019-04-14T12:26:04.700Z,10.97
2019-04-14T12:28:42.916Z,9.70
2019-04-14T12:32:15.092Z,12.17
2019-04-14T12:34:39.166Z,14.27
2019-04-14T12:37:34.224Z,12.90
2019-04-14T12:40:56.286Z,11.13
2019-04-14T12:44:14.592Z,11.20
2019-04-14T12:46:57.210Z,10.30
2019-04-14T12:49:31.425Z,11.13
2019-04-14T12:52:22.176Z,10.13
2019-04-14T12:54:52.023Z,9.87
2019-04-14T12:57:30.658Z,10.70
2019-04-14T13:00:00.514Z,12.47
2019-04-14T13:02:54.898Z,11.40
2019-04-14T13:05:24.204Z,10.37
2019-04-14T13:07:53.443Z,8.73
2019-04-14T13:10:30.001Z,10.47
2019-04-14T13:12:59.177Z,12.23
2019-04-14T13:15:28.732Z,12.23
2019-04-14T13:17:58.947Z,11.80
2019-04-14T13:20:29.244Z,11.37
2019-04-14T13:23:09.760Z,10.47
2019-04-14T13:25:44.195Z,13.70
2019-04-14T13:28:13.524Z,11.07
2019-04-14T13:30:45.170Z,12.00
2019-04-14T13:33:17.132Z,11.17
2019-04-14T13:35:47.095Z,13.50
2019-04-14T13:38:17.872Z,11.30
2019-04-14T13:40:46.756Z,11.33
2019-04-14T13:43:15.606Z,13.50
2019-04-14T13:45:44.635Z,11.93
2019-04-14T13:48:16.435Z,11.40
2019-04-14T13:50:45.333Z,10.80
2019-04-14T13:53:14.201Z,13.13
2019-04-14T13:55:43.566Z,12.43
2019-04-14T13:58:12.950Z,11.57
2019-04-14T14:00:42.017Z,12.40
2019-04-14T14:03:11.098Z,11.20
2019-04-14T14:05:43.370Z,11.77
2019-04-14T14:08:27.025Z,10.83
2019-04-14T14:11:09.850Z,12.50
2019-04-14T14:14:13.555Z,15.23
2019-04-14T14:16:57.569Z,12.73
2019-04-14T14:19:43.928Z,13.60
2019-04-14T14:22:16.787Z,12.23
2019-04-14T14:25:00.464Z,17.60
2019-04-14T14:27:29.290Z,15.30
2019-04-14T14:29:58.336Z,14.23
2019-04-14T14:32:35.382Z,13.27
2019-04-14T14:35:05.831Z,13.57
2019-04-14T14:37:35.167Z,12.73
2019-04-14T14:40:25.300Z,12.90
2019-04-14T14:42:44.683Z,15.73
2019-04-14T14:45:31.890Z,11.57
2019-04-14T14:48:15.956Z,15.93
2019-04-14T14:51:00.151Z,13.17
2019-04-14T14:53:29.910Z,11.87
2019-04-14T14:56:00.021Z,12.60
2019-04-14T14:58:28.958Z,13.43
2019-04-14T15:00:57.973Z,11.97
2019-04-14T15:03:27.226Z,10.83
2019-04-14T15:05:56.878Z,12.00
2019-04-14T15:08:25.844Z,11.73
2019-04-14T15:11:04.187Z,15.63
2019-04-14T15:13:36.092Z,15.60
2019-04-14T15:16:05.485Z,12.67
2019-04-14T15:18:37.461Z,10.13
2019-04-14T15:21:06.863Z,13.50
2019-04-14T15:23:36.916Z,12.37
2019-04-14T15:26:05.994Z,13.37
2019-04-14T15:28:35.446Z,15.17
2019-04-14T15:31:06.534Z,11.17
2019-04-14T15:33:35.668Z,8.33
2019-04-14T15:36:04.953Z,12.35
2019-04-14T15:38:34.990Z,9.53
2019-04-14T15:41:04.682Z,12.33
2019-04-14T15:43:33.776Z,10.93
2019-04-14T15:46:04.120Z,11.30
2019-04-14T15:48:33.101Z,10.20
2019-04-14T15:51:02.291Z,7.93
2019-04-14T15:53:37.924Z,10.10
2019-04-14T15:56:02.056Z,9.30
2019-04-14T15:58:55.315Z,9.83
2019-04-14T16:01:34.142Z,10.93
2019-04-14T16:04:08.709Z,11.80
2019-04-14T16:06:56.713Z,7.97
2019-04-14T16:09:43.369Z,12.80
2019-04-14T16:12:26.316Z,11.30
2019-04-14T16:15:06.965Z,9.23
2019-04-14T16:17:59.743Z,8.83
2019-04-14T16:20:33.823Z,9.10
2019-04-14T16:23:05.210Z,13.30
2019-04-14T16:25:41.757Z,12.47
2019-04-14T16:28:16.507Z,9.37
2019-04-14T16:31:03.633Z,11.70
2019-04-14T16:33:50.432Z,8.50
2019-04-14T16:36:20.271Z,7.13
2019-04-14T16:38:49.260Z,9.83
2019-04-14T16:41:24.850Z,9.20
2019-04-14T16:43:53.831Z,12.87
2019-04-14T16:46:22.762Z,13.97
2019-04-14T16:48:52.852Z,10.10
2019-04-14T16:51:26.938Z,7.57
2019-04-14T16:54:02.902Z,7.97
2019-04-14T16:56:48.853Z,15.37
2019-04-14T16:59:17.834Z,12.37
2019-04-14T17:01:48.332Z,8.00
2019-04-14T17:04:17.230Z,9.27
2019-04-14T17:06:46.145Z,9.47
2019-04-14T17:09:15.133Z,9.97
2019-04-14T17:11:43.921Z,8.47
2019-04-14T17:14:20.112Z,9.50
2019-04-14T17:17:07.829Z,14.53
2019-04-14T17:19:57.170Z,9.83
2019-04-14T17:22:35.715Z,11.77
2019-04-14T17:25:33.410Z,10.33
2019-04-14T17:28:19.776Z,9.87
2019-04-14T17:31:07.607Z,9.20
2019-04-14T17:33:44.614Z,7.77
2019-04-14T17:36:35.020Z,6.93
2019-04-14T17:39:31.780Z,9.97
2019-04-14T17:42:19.236Z,7.90
2019-04-14T17:45:01.495Z,8.20
2019-04-14T17:48:04.669Z,10.27
2019-04-14T17:51:10.806Z,11.40
2019-04-14T17:53:59.063Z,8.87
2019-04-14T17:56:35.512Z,9.00
2019-04-14T17:59:35.536Z,11.03
2019-04-14T18:02:17.607Z,12.03
2019-04-14T18:05:05.795Z,10.20
2019-04-14T18:07:48.823Z,10.47
2019-04-14T18:10:34.797Z,11.17
2019-04-14T18:13:13.517Z,11.77
2019-04-14T18:15:50.675Z,11.13
2019-04-14T18:18:31.015Z,10.13
2019-04-14T18:21:03.199Z,9.10
2019-04-14T18:23:32.287Z,12.47
2019-04-14T18:26:01.246Z,14.60
2019-04-14T18:28:48.237Z,8.40
2019-04-14T18:31:39.263Z,9.77
2019-04-14T18:34:18.988Z,12.70
2019-04-14T18:36:58.631Z,10.23
2019-04-14T18:39:49.785Z,12.83
2019-04-14T18:42:22.879Z,7.90
2019-04-14T18:45:09.758Z,10.63
2019-04-14T18:47:46.532Z,11.67
2019-04-14T18:50:24.004Z,13.60
2019-04-14T18:53:01.033Z,8.77
2019-04-14T18:55:55.402Z,11.63
2019-04-14T18:58:38.314Z,8.97
2019-04-14T19:01:16.358Z,9.93
2019-04-14T19:03:46.274Z,11.40
2019-04-14T19:06:15.398Z,10.70
2019-04-14T19:08:44.348Z,8.97
2019-04-14T19:11:32.414Z,9.00
2019-04-14T19:14:01.567Z,8.90
2019-04-14T19:16:43.459Z,8.53
2019-04-14T19:19:12.400Z,9.73
2019-04-14T19:21:41.270Z,10.00
2019-04-14T19:24:10.615Z,10.43
2019-04-14T19:26:39.890Z,8.07
2019-04-14T19:29:08.814Z,10.37
2019-04-14T19:31:38.063Z,11.30
2019-04-14T19:34:07.963Z,8.40
2019-04-14T19:36:36.823Z,9.97
2019-04-14T19:39:09.650Z,9.87
2019-04-14T19:41:39.792Z,10.00
2019-04-14T19:44:09.304Z,8.13
2019-04-14T19:46:44.801Z,13.80
2019-04-14T19:49:13.781Z,11.73
2019-04-14T19:51:42.746Z,9.13
2019-04-14T19:54:11.642Z,8.43
2019-04-14T19:56:43.500Z,9.67
2019-04-14T19:59:12.290Z,8.07
2019-04-14T20:01:41.718Z,9.07
2019-04-14T20:04:10.783Z,10.27
2019-04-14T20:06:39.641Z,9.57
2019-04-14T20:09:08.585Z,10.30
2019-04-14T20:11:37.476Z,8.27
2019-04-14T20:14:06.382Z,6.87
2019-04-14T20:16:48.135Z,7.50
2019-04-14T20:19:39.346Z,7.30
2019-04-14T20:22:30.402Z,8.40
2019-04-14T20:25:34.208Z,8.03
2019-04-14T20:28:10.958Z,6.73
2019-04-14T20:31:04.249Z,4.57
2019-04-14T20:33:33.122Z,7.07
2019-04-14T20:36:05.154Z,8.73
2019-04-14T20:38:32.649Z,7.47
2019-04-14T20:41:01.834Z,9.87
2019-04-14T20:43:31.178Z,7.33
2019-04-14T20:46:00.199Z,4.63
2019-04-14T20:48:29.438Z,6.43
2019-04-14T20:50:58.887Z,6.00
2019-04-14T20:53:27.947Z,4.43
2019-04-14T20:55:56.802Z,7.10
2019-04-14T20:58:25.947Z,5.87
2019-04-14T21:00:55.238Z,6.63
2019-04-14T21:03:35.179Z,4.27
2019-04-14T21:06:35.126Z,5.33
2019-04-14T21:09:17.113Z,4.03
2019-04-14T21:12:05.125Z,3.93
2019-04-14T21:14:43.985Z,5.90
2019-04-14T21:17:31.780Z,4.27
2019-04-14T21:20:22.684Z,5.87
2019-04-14T21:22:58.671Z,5.57
2019-04-14T21:25:36.061Z,7.43
2019-04-14T21:28:37.238Z,4.60
2019-04-14T21:31:24.055Z,5.47
2019-04-14T21:34:02.610Z,3.63
2019-04-14T21:36:39.879Z,4.10
2019-04-14T21:39:26.528Z,7.63
2019-04-14T21:41:55.346Z,6.43
2019-04-14T21:44:24.313Z,4.63
2019-04-14T21:46:53.152Z,5.67
2019-04-14T21:49:22.159Z,5.97
2019-04-14T21:52:01.752Z,7.30
2019-04-14T21:54:30.754Z,5.13
2019-04-14T21:57:24.612Z,4.63
2019-04-14T22:00:08.713Z,3.83
2019-04-14T22:02:55.559Z,7.03
2019-04-14T22:05:41.192Z,8.77
2019-04-14T22:08:17.162Z,5.07
2019-04-14T22:10:55.387Z,4.97
2019-04-14T22:13:24.316Z,8.10
2019-04-14T22:15:56.467Z,13.03
2019-04-14T22:18:25.440Z,6.20
2019-04-14T22:20:54.471Z,5.10
2019-04-14T22:23:23.507Z,5.73
2019-04-14T22:26:47.239Z,6.57
2019-04-14T22:29:16.066Z,4.63
2019-04-14T22:31:45.117Z,8.07
2019-04-14T22:34:14.136Z,8.10
2019-04-14T22:36:43.017Z,6.33
2019-04-14T22:39:15.112Z,5.80
2019-04-14T22:41:45.929Z,3.73
2019-04-14T22:44:15.095Z,5.03
2019-04-14T22:46:43.983Z,5.37
2019-04-14T22:49:12.892Z,6.37
2019-04-14T22:51:41.828Z,4.77
2019-04-14T22:54:11.016Z,5.07
2019-04-14T22:56:39.997Z,7.23
2019-04-14T22:59:09.235Z,4.27
2019-04-14T23:01:41.309Z,4.63
2019-04-14T23:04:20.500Z,7.07
2019-04-14T23:07:14.457Z,4.63
2019-04-14T23:09:51.192Z,7.40
2019-04-14T23:12:45.089Z,5.83
2019-04-14T23:15:33.730Z,5.10
2019-04-14T23:18:13.914Z,4.43
2019-04-14T23:21:00.746Z,4.87
2019-04-14T23:23:58.310Z,4.73
2019-04-14T23:26:27.129Z,4.93
2019-04-14T23:28:56.109Z,3.37
2019-04-14T23:31:24.897Z,6.47
2019-04-14T23:33:53.723Z,6.00
2019-04-14T23:36:22.569Z,3.53
2019-04-14T23:38:51.652Z,4.23
2019-04-14T23:41:20.595Z,4.33
2019-04-14T23:43:49.424Z,4.27
2019-04-14T23:46:18.306Z,4.70
2019-04-14T23:48:47.266Z,5.00
2019-04-14T23:51:16.305Z,5.63
2019-04-14T23:53:45.212Z,4.33
2019-04-14T23:56:14.080Z,5.07
2019-04-14T23:58:43.039Z,5.57
